Abis Bremen — PCJO — position and weather

sailwx.info

Track history (hours):
 
Tides and Currents Weather Stations Pressure Air Temp Water Temp Dewpoint Dewpoint Depression Visibility Wind Speed Wind Dir Waves Ship Positions

Abis Bremen

Last reported at 2020-Aug-09 23:28 UTC. Time now 2020-Aug-10 00:07 UTC.
Position N 53°25' E 014°35'.

Length 90 m; draft 5.2 m.

Type: Ship. MMSI: 246778880.

Date/timePositionNaut miles runAvg speedWind from/ knotsBaromVisibWave heightAir tempDewpointWater temp
2020-Aug-09 23:28N 53°25' E 014°35'0 0.0
2020-Aug-09 19:58N 53°25' E 014°35'0 0.0
2020-Aug-09 18:28N 53°25' E 014°35'0 0.0
2020-Aug-09 16:28N 53°25' E 014°35'0 0.0
2020-Aug-09 14:58N 53°25' E 014°35'0 0.0
2020-Aug-09 12:28N 53°25' E 014°35'0 0.0
2020-Aug-09 10:58N 53°25' E 014°35'0 0.0
2020-Aug-09 09:28N 53°25' E 014°35'0 0.0
2020-Aug-09 07:28N 53°25' E 014°35'0 0.0
2020-Aug-09 06:58N 53°25' E 014°35'0 0.0
2020-Aug-09 05:28N 53°25' E 014°35'0 0.0
2020-Aug-09 04:28N 53°25' E 014°35'0 0.0
2020-Aug-08 23:28N 53°25' E 014°35'0 0.0
2020-Aug-08 22:28N 53°25' E 014°35'0 0.0
2020-Aug-08 21:28N 53°25' E 014°35'0 0.0
2020-Aug-08 17:28N 53°25' E 014°35'0 0.0
2020-Aug-08 14:28N 53°25' E 014°35'0 0.0
2020-Aug-08 12:58N 53°25' E 014°35'0 0.0
2020-Aug-08 11:28N 53°25' E 014°35'0 0.0
2020-Aug-08 10:58N 53°25' E 014°35'0 0.0
2020-Aug-08 09:28N 53°25' E 014°35'0 0.0
2020-Aug-08 08:58N 53°25' E 014°35'0 0.0
2020-Aug-08 07:58N 53°25' E 014°35'10 3.4
2020-Aug-08 05:01N 53°35' E 014°36'45 6.5
2020-Aug-07 22:00N 54°19' E 014°56'20 8.0
2020-Aug-07 19:30N 54°32' E 015°22'16 8.1
2020-Aug-07 17:31N 54°42' E 015°44'9 8.6
2020-Aug-07 16:31N 54°47' E 015°56'22 8.7
2020-Aug-07 14:01N 55°02' E 016°24'9 8.9
2020-Aug-07 13:01N 55°08' E 016°35'5 9.0
2020-Aug-07 12:31N 55°11' E 016°41'18 9.2
2020-Aug-07 10:31N 55°22' E 017°06'5 9.1
2020-Aug-07 10:00N 55°25' E 017°12'31 8.9
2020-Aug-07 06:31N 55°46' E 017°53'13 8.7
2020-Aug-07 05:01N 55°57' E 018°05'4 8.6
2020-Aug-07 04:31N 56°01' E 018°09'4 8.6
2020-Aug-07 04:01N 56°04' E 018°14'4 8.6
2020-Aug-07 03:31N 56°08' E 018°18'222 8.7
2020-Aug-06 02:01N 59°30' E 021°09'4 8.7
2020-Aug-06 01:30N 59°34' E 021°13'26 8.8
2020-Aug-05 22:31N 59°57' E 021°40'22 8.9
2020-Aug-05 20:01N 60°17' E 021°59'510.3
2020-Aug-05 19:31N 60°21' E 022°05'6 3.2
2020-Aug-05 17:30N 60°27' E 022°03'0 0.0
2020-Aug-05 13:57N 60°27' E 022°03'0 0.0
2020-Aug-05 13:00N 60°27' E 022°03'0 0.0
2020-Aug-05 12:30N 60°27' E 022°03'0 0.0
2020-Aug-05 09:30N 60°27' E 022°03'0 0.0
2020-Aug-05 06:30N 60°27' E 022°03'0 0.0
2020-Aug-05 04:27N 60°27' E 022°03'15 3.8
2020-Aug-05 00:30N 60°23' E 021°34'20 9.8
2020-Aug-04 22:30N 60°37' E 021°05'139 9.6
2020-Aug-04 08:01N 62°55' E 020°27'28 9.3
2020-Aug-04 05:00N 63°23' E 020°31'9 8.9
2020-Aug-04 04:00N 63°31' E 020°41'  
2020-Aug-01 05:30N 63°19' E 020°27'2610.4
2020-Aug-01 02:59N 62°53' E 020°15'2710.5
2020-Aug-01 00:26N 62°27' E 020°02'410.1
2020-Aug-01 00:00N 62°23' E 020°01'8810.2
2020-Jul-31 15:23N 60°58' E 019°17'33 9.7
2020-Jul-31 12:00N 60°26' E 019°03'19 9.3
2020-Jul-31 10:00N 60°08' E 019°11'35 9.8
2020-Jul-31 06:29N 59°42' E 019°55'610.1
2020-Jul-31 05:53N 59°37' E 020°04'8 9.5
2020-Jul-31 05:00N 59°29' E 020°09'  
Track history (hours):
 
Tides and Currents Weather Stations Pressure Air Temp Water Temp Dewpoint Dewpoint Depression Visibility Wind Speed Wind Dir Waves Ship Positions

Abis Bremen

Last reported at 2020-Aug-09 23:28 UTC. Time now 2020-Aug-10 00:07 UTC.
Position N 53°25' E 014°35'.

Length 90 m; draft 5.2 m.

Type: Ship. MMSI: 246778880.

Date/timePositionNaut miles runAvg speedWind from/ knotsBaromVisibWave heightAir tempDewpointWater temp
2020-Aug-09 23:28N 53°25' E 014°35'0 0.0
2020-Aug-09 19:58N 53°25' E 014°35'0 0.0
2020-Aug-09 18:28N 53°25' E 014°35'0 0.0
2020-Aug-09 16:28N 53°25' E 014°35'0 0.0
2020-Aug-09 14:58N 53°25' E 014°35'0 0.0
2020-Aug-09 12:28N 53°25' E 014°35'0 0.0
2020-Aug-09 10:58N 53°25' E 014°35'0 0.0
2020-Aug-09 09:28N 53°25' E 014°35'0 0.0
2020-Aug-09 07:28N 53°25' E 014°35'0 0.0
2020-Aug-09 06:58N 53°25' E 014°35'0 0.0
2020-Aug-09 05:28N 53°25' E 014°35'0 0.0
2020-Aug-09 04:28N 53°25' E 014°35'0 0.0
2020-Aug-08 23:28N 53°25' E 014°35'0 0.0
2020-Aug-08 22:28N 53°25' E 014°35'0 0.0
2020-Aug-08 21:28N 53°25' E 014°35'0 0.0
2020-Aug-08 17:28N 53°25' E 014°35'0 0.0
2020-Aug-08 14:28N 53°25' E 014°35'0 0.0
2020-Aug-08 12:58N 53°25' E 014°35'0 0.0
2020-Aug-08 11:28N 53°25' E 014°35'0 0.0
2020-Aug-08 10:58N 53°25' E 014°35'0 0.0
2020-Aug-08 09:28N 53°25' E 014°35'0 0.0
2020-Aug-08 08:58N 53°25' E 014°35'0 0.0
2020-Aug-08 07:58N 53°25' E 014°35'10 3.4
2020-Aug-08 05:01N 53°35' E 014°36'45 6.5
2020-Aug-07 22:00N 54°19' E 014°56'20 8.0
2020-Aug-07 19:30N 54°32' E 015°22'16 8.1
2020-Aug-07 17:31N 54°42' E 015°44'9 8.6
2020-Aug-07 16:31N 54°47' E 015°56'22 8.7
2020-Aug-07 14:01N 55°02' E 016°24'9 8.9
2020-Aug-07 13:01N 55°08' E 016°35'5 9.0
2020-Aug-07 12:31N 55°11' E 016°41'18 9.2
2020-Aug-07 10:31N 55°22' E 017°06'5 9.1
2020-Aug-07 10:00N 55°25' E 017°12'31 8.9
2020-Aug-07 06:31N 55°46' E 017°53'13 8.7
2020-Aug-07 05:01N 55°57' E 018°05'4 8.6
2020-Aug-07 04:31N 56°01' E 018°09'4 8.6
2020-Aug-07 04:01N 56°04' E 018°14'4 8.6
2020-Aug-07 03:31N 56°08' E 018°18'222 8.7
2020-Aug-06 02:01N 59°30' E 021°09'4 8.7
2020-Aug-06 01:30N 59°34' E 021°13'26 8.8
2020-Aug-05 22:31N 59°57' E 021°40'22 8.9
2020-Aug-05 20:01N 60°17' E 021°59'510.3
2020-Aug-05 19:31N 60°21' E 022°05'6 3.2
2020-Aug-05 17:30N 60°27' E 022°03'0 0.0
2020-Aug-05 13:57N 60°27' E 022°03'0 0.0
2020-Aug-05 13:00N 60°27' E 022°03'0 0.0
2020-Aug-05 12:30N 60°27' E 022°03'0 0.0
2020-Aug-05 09:30N 60°27' E 022°03'0 0.0
2020-Aug-05 06:30N 60°27' E 022°03'0 0.0
2020-Aug-05 04:27N 60°27' E 022°03'15 3.8
2020-Aug-05 00:30N 60°23' E 021°34'20 9.8
2020-Aug-04 22:30N 60°37' E 021°05'139 9.6
2020-Aug-04 08:01N 62°55' E 020°27'28 9.3
2020-Aug-04 05:00N 63°23' E 020°31'9 8.9
2020-Aug-04 04:00N 63°31' E 020°41'  
2020-Aug-01 05:30N 63°19' E 020°27'2610.4
2020-Aug-01 02:59N 62°53' E 020°15'2710.5
2020-Aug-01 00:26N 62°27' E 020°02'410.1
2020-Aug-01 00:00N 62°23' E 020°01'8810.2
2020-Jul-31 15:23N 60°58' E 019°17'33 9.7
2020-Jul-31 12:00N 60°26' E 019°03'19 9.3
2020-Jul-31 10:00N 60°08' E 019°11'35 9.8
2020-Jul-31 06:29N 59°42' E 019°55'610.1
2020-Jul-31 05:53N 59°37' E 020°04'8 9.5
2020-Jul-31 05:00N 59°29' E 020°09'  

Dump ship's entire track history